Time;durP1;ratioP1;P1;durP2;ratioP2;P2;SDS_P1;SDS_P2;PMS_P1;PMS_P2;Temp;Humidity;BMP_temperature;BMP_pressure;BME280_temperature;BME280_humidity;BME280_pressure;Samples;Min_cycle;Max_cycle;Signal;HPM_P1;HPM_P2
2023/05/17 00:00:43;;;;;;;6.30;2.30;;;;;;;17.28;59.98;96722.45;110211;1244;58845;-79
2023/05/17 00:03:17;;;;;;;7.10;2.60;;;;;;;17.26;60.05;96720.15;110155;1243;58865;-81
2023/05/17 00:05:50;;;;;;;7.50;2.30;;;;;;;17.26;59.54;96723.85;110242;1245;70412;-80
2023/05/17 00:08:21;;;;;;;4.70;1.90;;;;;;;17.26;59.36;96723.81;110191;1244;69243;-81
2023/05/17 00:10:52;;;;;;;4.90;1.90;;;;;;;17.30;58.63;96722.76;110209;1241;69111;-80
2023/05/17 00:13:23;;;;;;;3.00;1.70;;;;;;;17.33;58.95;96721.58;110276;1245;58950;-79
2023/05/17 00:15:54;;;;;;;5.30;1.90;;;;;;;17.35;58.71;96716.64;110213;1244;58877;-79
2023/05/17 00:18:25;;;;;;;4.70;2.00;;;;;;;17.35;58.01;96718.48;110215;1244;69815;-79
2023/05/17 00:20:56;;;;;;;4.20;2.10;;;;;;;17.35;56.93;96714.81;110214;1243;69367;-79
2023/05/17 00:23:26;;;;;;;5.10;1.70;;;;;;;17.36;57.60;96718.24;110232;1245;69215;-79
2023/05/17 00:25:57;;;;;;;3.40;2.10;;;;;;;17.33;58.03;96715.09;110160;1244;58918;-78
2023/05/17 00:28:28;;;;;;;6.20;2.00;;;;;;;17.29;57.93;96715.06;110193;1244;58893;-79
2023/05/17 00:31:00;;;;;;;4.90;2.10;;;;;;;17.25;58.27;96711.09;110224;1244;70034;-80
2023/05/17 00:33:31;;;;;;;4.20;1.90;;;;;;;17.21;58.29;96710.56;110232;1241;69193;-80
2023/05/17 00:36:04;;;;;;;6.40;1.90;;;;;;;17.19;57.84;96706.77;110143;1244;68858;-80
2023/05/17 00:38:36;;;;;;;5.70;1.90;;;;;;;17.20;57.14;96706.25;110154;1241;58966;-80
2023/05/17 00:41:07;;;;;;;5.20;1.90;;;;;;;17.20;57.43;96709.09;110202;1243;58938;-79
2023/05/17 00:43:37;;;;;;;5.00;1.90;;;;;;;17.19;56.92;96710.77;110220;1243;70605;-79
2023/05/17 00:46:08;;;;;;;4.60;2.10;;;;;;;17.18;57.01;96710.45;110123;1241;69037;-80
2023/05/17 00:48:41;;;;;;;7.00;2.10;;;;;;;17.18;56.90;96712.24;110224;1244;68743;-79
2023/05/17 00:51:13;;;;;;;4.60;1.70;;;;;;;17.21;56.03;96713.38;110220;1242;58886;-80
2023/05/17 00:53:46;;;;;;;3.80;1.50;;;;;;;17.25;55.81;96715.38;110187;1241;59285;-80
2023/05/17 00:56:16;;;;;;;4.60;2.30;;;;;;;17.29;54.78;96713.54;110206;1241;69839;-79
2023/05/17 00:58:47;;;;;;;3.70;2.20;;;;;;;17.37;54.37;96714.10;110134;1245;69327;-79
2023/05/17 01:01:19;;;;;;;5.60;2.20;;;;;;;17.44;53.50;96716.66;110191;1241;69434;-79
2023/05/17 01:03:53;;;;;;;4.10;2.10;;;;;;;17.49;53.31;96715.91;110211;1245;58904;-80
2023/05/17 01:06:24;;;;;;;8.40;1.80;;;;;;;17.53;51.26;96718.96;110199;1243;58878;-78
2023/05/17 01:08:56;;;;;;;3.90;1.80;;;;;;;17.60;49.81;96722.38;110172;1243;69400;-79
2023/05/17 01:11:46;;;;;;;7.00;1.80;;;;;;;17.66;48.74;96723.84;110205;1241;68471;-79
2023/05/17 01:14:47;;;;;;;5.00;1.90;;;;;;;17.72;47.95;96724.11;110225;1246;69280;-80
2023/05/17 01:17:50;;;;;;;5.30;1.50;;;;;;;17.77;45.63;96725.42;110192;1245;58857;-80
2023/05/17 01:20:30;;;;;;;3.10;1.70;;;;;;;17.85;43.78;96725.39;110258;1242;58921;-80
2023/05/17 01:23:50;;;;;;;2.60;1.30;;;;;;;17.91;42.36;96722.69;110227;1241;70128;-79
2023/05/17 01:26:37;;;;;;;3.70;1.20;;;;;;;18.03;40.46;96723.52;110195;1244;69201;-78
2023/05/17 01:29:09;;;;;;;5.00;1.90;;;;;;;18.12;39.21;96721.89;110177;1241;69268;-80
2023/05/17 01:31:40;;;;;;;4.60;2.10;;;;;;;18.17;38.86;96726.52;110257;1243;58940;-80
2023/05/17 01:34:11;;;;;;;3.20;1.30;;;;;;;18.22;38.13;96728.80;110126;1244;58853;-81
2023/05/17 01:36:43;;;;;;;2.90;1.30;;;;;;;18.26;36.95;96732.21;110257;1244;69859;-79
2023/05/17 01:39:16;;;;;;;3.90;1.50;;;;;;;18.38;35.14;96734.77;110134;1244;69680;-80
2023/05/17 01:42:20;;;;;;;3.70;1.50;;;;;;;18.42;35.45;96736.92;110139;1244;70155;-79
2023/05/17 01:45:15;;;;;;;2.30;1.50;;;;;;;18.43;35.31;96740.45;110170;1241;58957;-79
2023/05/17 01:48:05;;;;;;;4.40;1.50;;;;;;;18.41;35.62;96737.92;110121;1244;58881;-80
2023/05/17 01:50:41;;;;;;;1.70;1.30;;;;;;;18.37;34.97;96743.88;110184;1241;70624;-78
2023/05/17 01:53:39;;;;;;;2.90;1.20;;;;;;;18.30;35.47;96747.76;110216;1243;68598;-79
2023/05/17 01:56:19;;;;;;;5.40;1.50;;;;;;;18.22;34.57;96755.98;110161;1241;69408;-80
2023/05/17 01:58:51;;;;;;;4.20;1.90;;;;;;;18.17;35.08;96755.44;110149;1244;58944;-78
2023/05/17 02:01:23;;;;;;;2.50;1.20;;;;;;;18.12;35.47;96753.04;110216;1243;58902;-79
2023/05/17 02:03:55;;;;;;;1.80;1.10;;;;;;;18.06;34.64;96749.79;110198;1241;70394;-79
2023/05/17 02:06:27;;;;;;;3.20;1.30;;;;;;;18.00;35.42;96751.51;110227;1246;68559;-77
2023/05/17 02:09:01;;;;;;;2.40;1.70;;;;;;;17.95;34.67;96755.66;110155;1244;68338;-77
2023/05/17 02:11:33;;;;;;;2.50;1.30;;;;;;;17.92;34.41;96751.13;110169;1241;58957;-79
2023/05/17 02:14:05;;;;;;;2.40;1.30;;;;;;;17.90;34.23;96749.80;110167;1245;58892;-81
2023/05/17 02:16:38;;;;;;;3.90;1.80;;;;;;;17.87;34.43;96750.10;110203;1241;70590;-79
2023/05/17 02:19:11;;;;;;;2.70;1.30;;;;;;;17.85;33.40;96746.45;110211;1243;69221;-80
2023/05/17 02:21:41;;;;;;;3.40;1.50;;;;;;;17.84;33.16;96751.50;110189;1243;68552;-79
2023/05/17 02:24:12;;;;;;;1.80;1.40;;;;;;;17.81;33.64;96757.63;110188;1244;58941;-79
2023/05/17 02:26:44;;;;;;;2.30;1.50;;;;;;;17.77;32.80;96765.28;110199;1244;58930;-79
2023/05/17 02:29:16;;;;;;;3.90;1.30;;;;;;;17.74;32.86;96767.57;110248;1243;69266;-82
2023/05/17 02:31:49;;;;;;;4.20;1.90;;;;;;;17.73;33.04;96767.13;110304;1243;68613;-80
2023/05/17 02:34:20;;;;;;;3.30;1.70;;;;;;;17.68;33.57;96773.17;110442;1243;69240;-80
2023/05/17 02:36:52;;;;;;;3.60;1.40;;;;;;;17.63;33.47;96776.86;110892;1241;59013;-81
2023/05/17 02:39:23;;;;;;;2.90;1.40;;;;;;;17.59;33.66;96773.65;110292;1243;58879;-80
2023/05/17 02:41:53;;;;;;;;;;;;;;;17.56;33.54;96773.59;110297;1241;71148;-77
2023/05/17 02:44:24;;;;;;;3.40;1.40;;;;;;;17.51;33.85;96777.14;110328;1244;69220;-80
2023/05/17 02:46:56;;;;;;;3.40;1.40;;;;;;;17.47;34.01;96785.55;110297;1243;69119;-80
2023/05/17 02:49:27;;;;;;;3.10;1.60;;;;;;;17.42;33.76;96792.06;110261;1241;58992;-80
2023/05/17 02:51:57;;;;;;;2.60;1.40;;;;;;;17.40;33.95;96802.38;110260;1244;58963;-81
2023/05/17 02:54:27;;;;;;;2.90;1.30;;;;;;;17.38;34.06;96811.02;110195;1241;70424;-80
2023/05/17 02:56:58;;;;;;;2.70;1.50;;;;;;;17.35;33.67;96822.27;110214;1241;69903;-79
2023/05/17 02:59:29;;;;;;;3.80;1.50;;;;;;;17.35;33.67;96825.55;110186;1244;69202;-80
2023/05/17 03:02:01;;;;;;;2.00;1.30;;;;;;;17.37;33.25;96831.70;110157;1244;58944;-80
2023/05/17 03:04:32;;;;;;;2.30;1.30;;;;;;;17.38;33.61;96838.46;110236;1245;58834;-80
2023/05/17 03:07:03;;;;;;;3.20;1.80;;;;;;;17.37;34.05;96846.20;110126;1241;70525;-79
2023/05/17 03:09:36;;;;;;;2.40;1.80;;;;;;;17.34;34.53;96852.97;110211;1244;69263;-80
2023/05/17 03:12:07;;;;;;;3.10;1.60;;;;;;;17.15;36.87;96852.98;110199;1252;69282;-81
2023/05/17 03:14:38;;;;;;;3.00;1.60;;;;;;;17.01;37.90;96861.31;110176;1244;58943;-80
2023/05/17 03:17:10;;;;;;;2.70;1.30;;;;;;;16.85;38.23;96861.86;110215;1241;59281;-79
2023/05/17 03:19:42;;;;;;;2.80;1.50;;;;;;;16.72;37.86;96863.52;110183;1242;71021;-80
2023/05/17 03:22:14;;;;;;;3.40;1.90;;;;;;;16.66;37.36;96860.27;110207;1244;69355;-80
2023/05/17 03:24:46;;;;;;;4.80;1.80;;;;;;;16.63;37.69;96862.87;110201;1243;69321;-80
2023/05/17 03:27:17;;;;;;;6.80;2.00;;;;;;;16.59;37.99;96867.17;110216;1241;58895;-80
2023/05/17 03:29:47;;;;;;;2.90;1.50;;;;;;;16.59;37.27;96870.17;110201;1241;58916;-79
2023/05/17 03:32:17;;;;;;;2.90;1.80;;;;;;;16.60;37.35;96875.40;110116;1241;69723;-79
2023/05/17 03:34:48;;;;;;;2.90;1.40;;;;;;;16.59;38.17;96884.62;110227;1243;69617;-80
2023/05/17 03:37:17;;;;;;;3.00;1.50;;;;;;;16.57;38.67;96885.20;110195;1242;69309;-79
2023/05/17 03:39:49;;;;;;;2.20;1.50;;;;;;;16.52;39.36;96879.89;110114;1244;58888;-78
2023/05/17 03:42:22;;;;;;;2.20;1.40;;;;;;;16.47;39.55;96884.26;110156;1241;58899;-77
2023/05/17 03:44:53;;;;;;;2.20;1.50;;;;;;;16.41;40.02;96882.25;110143;1244;70435;-79
2023/05/17 03:47:24;;;;;;;2.50;1.40;;;;;;;16.37;41.70;96884.97;110197;1241;69364;-69
2023/05/17 03:49:55;;;;;;;2.10;1.40;;;;;;;16.36;40.74;96889.31;110153;1245;69838;-81
2023/05/17 03:52:26;;;;;;;3.50;1.40;;;;;;;16.34;41.16;96887.23;110128;1241;58874;-82
2023/05/17 03:54:55;;;;;;;2.10;1.40;;;;;;;16.35;40.66;96883.83;110203;1242;58853;-81
2023/05/17 03:57:25;;;;;;;5.10;2.70;;;;;;;16.36;40.69;96885.43;110182;1245;70097;-81
2023/05/17 03:59:54;;;;;;;3.40;1.80;;;;;;;16.36;46.36;96887.67;110190;1245;69225;-82
2023/05/17 04:02:24;;;;;;;3.60;1.70;;;;;;;16.28;50.84;96885.92;110125;1241;68584;-81
2023/05/17 04:04:53;;;;;;;2.20;1.30;;;;;;;16.20;50.65;96885.50;110190;1244;58904;-82
2023/05/17 04:07:23;;;;;;;1.80;1.60;;;;;;;16.11;52.42;96878.35;110167;1241;58937;-83
2023/05/17 04:09:54;;;;;;;2.40;1.60;;;;;;;15.99;55.63;96879.74;110185;1244;70955;-80
2023/05/17 04:12:23;;;;;;;2.50;1.60;;;;;;;15.89;55.33;96880.14;110243;1245;69878;-82
2023/05/17 04:14:55;;;;;;;3.30;1.70;;;;;;;15.76;54.81;96882.83;110183;1241;69707;-82
2023/05/17 04:17:24;;;;;;;4.00;1.80;;;;;;;15.63;57.01;96886.92;110182;1243;58886;-81
2023/05/17 04:19:54;;;;;;;2.30;1.70;;;;;;;15.50;56.34;96893.55;110177;1241;58950;-81
2023/05/17 04:22:23;;;;;;;;;;;;;;;15.35;61.71;96900.18;110196;1244;69974;-79
2023/05/17 04:24:52;;;;;;;2.60;1.60;;;;;;;15.18;61.02;96903.09;110212;1244;68411;-79
2023/05/17 04:27:22;;;;;;;3.50;1.70;;;;;;;15.04;57.84;96904.13;110204;1241;68494;-79
2023/05/17 04:29:51;;;;;;;3.00;1.70;;;;;;;14.95;62.31;96908.69;110237;1241;58925;-81
2023/05/17 04:32:21;;;;;;;3.70;1.90;;;;;;;14.81;63.68;96915.04;110218;1244;58876;-81
2023/05/17 04:34:51;;;;;;;2.50;1.60;;;;;;;14.64;65.80;96922.39;110229;1244;70759;-68
2023/05/17 04:37:23;;;;;;;2.30;1.70;;;;;;;14.57;66.98;96927.12;110094;1241;68772;-79
2023/05/17 04:39:57;;;;;;;1.90;1.60;;;;;;;14.52;66.26;96933.41;110181;1241;69608;-77
2023/05/17 04:42:27;;;;;;;2.60;1.50;;;;;;;14.49;63.71;96935.39;110156;1245;58999;-78
2023/05/17 04:44:59;;;;;;;3.90;1.50;;;;;;;14.50;65.68;96930.95;110236;1245;58884;-80
2023/05/17 04:47:29;;;;;;;2.50;1.70;;;;;;;14.47;69.28;96929.27;110160;1241;70359;-79
2023/05/17 04:49:59;;;;;;;2.10;1.50;;;;;;;14.40;71.42;96928.23;110182;1241;69802;-80
2023/05/17 04:52:28;;;;;;;2.40;1.70;;;;;;;14.35;68.11;96924.67;110229;1241;69575;-79
2023/05/17 04:54:58;;;;;;;2.50;1.90;;;;;;;14.30;67.60;96927.98;110211;1241;58928;-79
2023/05/17 04:57:28;;;;;;;2.80;1.30;;;;;;;14.30;69.14;96928.80;110218;1242;58869;-79
2023/05/17 05:00:06;;;;;;;2.20;1.60;;;;;;;14.33;69.27;96925.77;110216;1241;70504;-79
2023/05/17 05:02:35;;;;;;;1.70;1.40;;;;;;;14.29;71.75;96921.67;110243;1245;69358;-79
2023/05/17 05:05:06;;;;;;;3.50;1.90;;;;;;;14.27;70.12;96920.67;110155;1241;69885;-80
2023/05/17 05:07:38;;;;;;;2.00;1.70;;;;;;;14.26;71.27;96922.34;110176;1242;58907;-80
2023/05/17 05:10:08;;;;;;;2.40;1.90;;;;;;;14.29;74.37;96921.88;110173;1241;59269;-81
2023/05/17 05:12:37;;;;;;;2.70;1.40;;;;;;;14.33;72.10;96910.52;110205;1241;71551;-80
2023/05/17 05:15:07;;;;;;;1.80;1.50;;;;;;;14.37;70.50;96915.16;110185;1246;69133;-81
2023/05/17 05:17:38;;;;;;;2.40;2.00;;;;;;;14.46;76.56;96913.05;110107;1244;69248;-79
2023/05/17 05:20:08;;;;;;;;;;;;;;;14.52;75.31;96914.48;110218;1241;58895;-79
2023/05/17 05:22:37;;;;;;;2.00;1.50;;;;;;;14.59;72.54;96913.66;110210;1244;59330;-80
2023/05/17 05:25:08;;;;;;;2.50;1.90;;;;;;;14.64;75.99;96913.06;110212;1241;70653;-81
2023/05/17 05:27:37;;;;;;;2.00;1.50;;;;;;;14.74;74.79;96912.33;110181;1241;68506;-79
2023/05/17 05:30:07;;;;;;;3.10;1.90;;;;;;;14.80;77.84;96911.45;110182;1241;68525;-80
2023/05/17 05:32:37;;;;;;;3.50;2.40;;;;;;;14.82;77.64;96909.58;110173;1241;58920;-79
2023/05/17 05:35:07;;;;;;;3.80;2.80;;;;;;;14.84;74.81;96905.23;110173;1244;58890;-80
2023/05/17 05:37:36;;;;;;;3.00;2.30;;;;;;;14.89;77.82;96904.95;110113;1244;69996;-79
2023/05/17 05:40:07;;;;;;;2.60;2.30;;;;;;;14.98;77.85;96905.75;110252;1242;69068;-78
2023/05/17 05:42:37;;;;;;;4.10;2.60;;;;;;;15.12;77.47;96902.91;110165;1244;69910;-81
2023/05/17 05:45:07;;;;;;;3.50;2.30;;;;;;;15.27;78.77;96899.88;110197;1244;58834;-81
2023/05/17 05:47:36;;;;;;;3.20;2.60;;;;;;;15.39;80.26;96901.99;110157;1241;58910;-79
2023/05/17 05:50:08;;;;;;;2.90;2.60;;;;;;;15.54;79.56;96894.20;110198;1241;70757;-80
2023/05/17 05:52:37;;;;;;;4.50;2.90;;;;;;;15.75;79.94;96891.91;110250;1245;68566;-81
2023/05/17 05:55:08;;;;;;;4.50;3.00;;;;;;;15.94;80.53;96891.06;110150;1241;69256;-80
2023/05/17 05:57:38;;;;;;;4.50;3.50;;;;;;;16.11;79.64;96896.77;110183;1242;58964;-80
2023/05/17 06:00:08;;;;;;;4.20;2.90;;;;;;;16.35;76.78;96898.20;110163;1245;58940;-80
2023/05/17 06:02:40;;;;;;;3.40;2.50;;;;;;;16.62;72.32;96897.10;110187;1241;71623;-79
2023/05/17 06:05:10;;;;;;;3.90;2.80;;;;;;;16.83;74.25;96895.95;110258;1241;69268;-79
2023/05/17 06:07:40;;;;;;;3.60;2.60;;;;;;;17.09;73.15;96900.05;110246;1244;69266;-78
2023/05/17 06:10:10;;;;;;;3.70;2.80;;;;;;;17.42;72.26;96900.17;110208;1244;58941;-80
2023/05/17 06:12:39;;;;;;;3.70;2.60;;;;;;;17.85;67.68;96909.24;110196;1241;58940;-79
2023/05/17 06:15:09;;;;;;;2.50;1.90;;;;;;;18.30;63.82;96902.27;110223;1245;70058;-74
2023/05/17 06:17:38;;;;;;;3.10;1.90;;;;;;;18.66;58.61;96900.66;110226;1241;69844;-73
2023/05/17 06:20:08;;;;;;;3.60;1.80;;;;;;;19.12;60.93;96904.33;110220;1245;69880;-74
2023/05/17 06:22:37;;;;;;;2.10;1.80;;;;;;;19.54;58.16;96906.26;110219;1243;58888;-73
2023/05/17 06:25:07;;;;;;;3.30;1.60;;;;;;;19.86;56.29;96901.15;110250;1242;58941;-75
2023/05/17 06:27:36;;;;;;;;;;;;;;;20.01;54.21;96903.55;110258;1241;69811;-72
2023/05/17 06:30:06;;;;;;;3.30;1.40;;;;;;;20.19;50.58;96892.70;110160;1245;70088;-70
2023/05/17 06:32:36;;;;;;;3.10;1.30;;;;;;;20.11;42.56;96890.88;110205;1241;69643;-72
2023/05/17 06:35:07;;;;;;;2.80;1.40;;;;;;;20.16;42.17;96890.93;110184;1241;58811;-72
2023/05/17 06:37:36;;;;;;;3.60;1.20;;;;;;;20.29;44.35;96895.92;110190;1243;59327;-71
2023/05/17 06:40:09;;;;;;;4.40;1.80;;;;;;;20.30;48.06;96898.41;110180;1241;71169;-72
2023/05/17 06:42:44;;;;;;;2.00;1.50;;;;;;;20.09;52.19;96901.05;110198;1243;69540;-71
2023/05/17 06:45:13;;;;;;;3.50;1.90;;;;;;;19.88;50.66;96907.11;110179;1241;68532;-73
2023/05/17 06:47:42;;;;;;;3.00;1.80;;;;;;;19.92;52.09;96911.58;110196;1243;58862;-72
2023/05/17 06:50:12;;;;;;;2.30;1.20;;;;;;;19.59;53.09;96917.02;110194;1244;58881;-71
2023/05/17 06:52:41;;;;;;;3.70;1.90;;;;;;;19.61;51.66;96917.63;110232;1243;71140;-71
2023/05/17 06:55:11;;;;;;;3.90;1.70;;;;;;;19.43;52.98;96920.34;110204;1241;68344;-70
2023/05/17 06:57:40;;;;;;;2.80;1.60;;;;;;;19.04;55.53;96923.34;110205;1243;70229;-71
2023/05/17 07:00:11;;;;;;;2.70;1.60;;;;;;;19.01;55.14;96922.89;110207;1241;58897;-71
2023/05/17 07:02:41;;;;;;;4.50;1.90;;;;;;;19.00;55.47;96925.67;110157;1242;58887;-72
2023/05/17 07:05:10;;;;;;;2.80;1.60;;;;;;;19.02;53.29;96922.51;110217;1241;70558;-71
2023/05/17 07:07:39;;;;;;;3.70;1.80;;;;;;;19.03;55.08;96923.66;110185;1241;69803;-73
2023/05/17 07:10:09;;;;;;;2.70;1.30;;;;;;;18.94;57.84;96921.20;110258;1243;69578;-71
2023/05/17 07:12:38;;;;;;;1.70;1.10;;;;;;;19.00;52.84;96920.14;110201;1241;58918;-72
2023/05/17 07:15:07;;;;;;;1.60;1.20;;;;;;;19.13;49.98;96919.67;110189;1243;58872;-69
2023/05/17 07:17:36;;;;;;;3.50;1.20;;;;;;;19.33;47.96;96915.48;110238;1243;70564;-72
2023/05/17 07:20:06;;;;;;;3.00;1.60;;;;;;;19.66;50.42;96923.60;110204;1241;68278;-71
2023/05/17 07:22:36;;;;;;;2.60;1.40;;;;;;;19.89;46.65;96922.16;110182;1244;68776;-71
2023/05/17 07:25:07;;;;;;;1.80;1.20;;;;;;;20.06;45.23;96924.19;110195;1241;58940;-73
2023/05/17 07:27:39;;;;;;;2.00;1.30;;;;;;;20.37;45.73;96925.27;110164;1244;58926;-72
2023/05/17 07:30:09;;;;;;;2.20;1.50;;;;;;;20.50;45.78;96925.11;110187;1242;70588;-70
2023/05/17 07:32:37;;;;;;;;;;;;;;;20.56;43.29;96928.14;110173;1244;69720;-69
2023/05/17 07:35:07;;;;;;;;;;;;;;;20.78;44.95;96933.88;110164;1241;69252;-71
2023/05/17 07:37:36;;;;;;;2.00;1.50;;;;;;;20.63;45.06;96930.63;110213;1241;58848;-71
2023/05/17 07:40:06;;;;;;;1.60;1.50;;;;;;;20.75;44.24;96936.21;110197;1241;58892;-71
2023/05/17 07:42:34;;;;;;;2.70;1.60;;;;;;;20.57;43.87;96938.77;110190;1244;70576;-69
2023/05/17 07:45:04;;;;;;;3.00;1.70;;;;;;;20.27;46.48;96936.16;110203;1241;68350;-71
2023/05/17 07:47:33;;;;;;;3.00;1.60;;;;;;;20.49;45.46;96935.16;110199;1241;69878;-68
2023/05/17 07:50:03;;;;;;;3.20;1.70;;;;;;;20.40;45.37;96936.20;110205;1244;58961;-70
2023/05/17 07:52:32;;;;;;;2.00;1.50;;;;;;;20.39;44.97;96934.42;110215;1241;58944;-71
2023/05/17 07:55:00;;;;;;;4.00;2.10;;;;;;;20.38;43.91;96937.73;110177;1241;70531;-68
2023/05/17 07:57:30;;;;;;;1.80;1.50;;;;;;;20.20;42.16;96942.55;110204;1243;68480;-70
2023/05/17 07:59:59;;;;;;;2.80;1.30;;;;;;;20.04;42.95;96943.69;110186;1244;69832;-69
2023/05/17 08:02:39;;;;;;;2.00;1.60;;;;;;;19.84;42.71;96954.59;110184;1242;58973;-70
2023/05/17 08:05:09;;;;;;;1.70;1.30;;;;;;;19.68;44.62;96955.27;110174;1244;58937;-70
2023/05/17 08:07:38;;;;;;;;;;;;;;;19.72;44.82;96955.73;110211;1241;69815;-71
2023/05/17 08:10:08;;;;;;;3.00;1.50;;;;;;;19.70;44.96;96958.09;110157;1244;69807;-72
2023/05/17 08:12:37;;;;;;;1.80;1.50;;;;;;;19.73;44.23;96956.95;110181;1243;69897;-71
2023/05/17 08:15:07;;;;;;;2.60;1.50;;;;;;;19.72;44.73;96962.34;110140;1248;58939;-72
2023/05/17 08:17:36;;;;;;;1.90;1.40;;;;;;;19.69;45.19;96965.14;110153;1244;58831;-70
2023/05/17 08:20:06;;;;;;;3.90;1.30;;;;;;;19.53;46.06;96966.98;110137;1241;71189;-69
2023/05/17 08:22:35;;;;;;;1.70;1.30;;;;;;;19.44;44.01;96964.69;110187;1243;69688;-73
2023/05/17 08:25:05;;;;;;;2.30;1.60;;;;;;;19.44;43.22;96971.38;110182;1241;68717;-73
2023/05/17 08:27:33;;;;;;;2.10;1.20;;;;;;;19.46;43.38;96970.11;110116;1244;58947;-71
2023/05/17 08:30:03;;;;;;;2.50;1.40;;;;;;;19.48;43.22;96977.52;110172;1241;58902;-72
2023/05/17 08:32:39;;;;;;;3.30;1.70;;;;;;;19.53;42.94;96971.73;110226;1244;70691;-72
2023/05/17 08:35:09;;;;;;;2.30;1.80;;;;;;;19.67;44.50;96973.48;110207;1241;67407;-70
2023/05/17 08:37:38;;;;;;;4.40;2.30;;;;;;;19.58;47.72;96972.08;110196;1243;68688;-73
2023/05/17 08:40:08;;;;;;;4.60;2.00;;;;;;;19.40;50.38;96975.27;110199;1243;58989;-73
2023/05/17 08:42:37;;;;;;;5.20;2.30;;;;;;;19.30;50.41;96980.20;110223;1244;58886;-71
2023/05/17 08:45:09;;;;;;;3.70;2.10;;;;;;;19.11;51.46;96983.99;110218;1241;71072;-73
2023/05/17 08:47:41;;;;;;;2.90;2.00;;;;;;;18.94;50.17;96982.94;110221;1244;68850;-72
2023/05/17 08:50:11;;;;;;;2.80;2.00;;;;;;;18.79;53.13;96985.17;110222;1245;69514;-72
2023/05/17 08:52:44;;;;;;;3.30;2.10;;;;;;;18.68;52.62;96987.47;110196;1245;58875;-71
2023/05/17 08:55:15;;;;;;;3.70;2.40;;;;;;;18.50;53.86;96997.74;110183;1245;58824;-72
2023/05/17 08:57:45;;;;;;;3.50;1.90;;;;;;;18.34;54.82;96995.92;110190;1245;70568;-70
2023/05/17 09:00:20;;;;;;;3.70;2.10;;;;;;;18.22;56.33;96997.89;110153;1241;68474;-72
2023/05/17 09:02:49;;;;;;;3.40;2.10;;;;;;;18.12;57.24;97001.86;110182;1241;69156;-72
2023/05/17 09:05:19;;;;;;;3.70;2.20;;;;;;;18.04;57.01;97012.87;110175;1241;58896;-71
2023/05/17 09:07:48;;;;;;;3.20;1.90;;;;;;;17.92;58.91;97018.54;110156;1245;58850;-71
2023/05/17 09:10:18;;;;;;;4.20;2.50;;;;;;;17.77;58.21;97024.85;110168;1241;71008;-72
2023/05/17 09:12:49;;;;;;;4.20;2.30;;;;;;;17.68;58.51;97027.25;110181;1241;69079;-71
2023/05/17 09:15:22;;;;;;;4.80;2.70;;;;;;;17.61;59.92;97037.13;110162;1244;69290;-70
2023/05/17 09:17:56;;;;;;;3.70;2.20;;;;;;;17.41;59.96;97041.40;110193;1244;59350;-71
2023/05/17 09:20:33;;;;;;;4.40;2.60;;;;;;;17.52;60.57;97043.04;110184;1243;58875;-72
2023/05/17 09:23:03;;;;;;;4.90;2.70;;;;;;;17.41;60.16;97046.83;110253;1244;70560;-72
2023/05/17 09:25:32;;;;;;;3.50;2.40;;;;;;;17.47;61.51;97045.11;110187;1241;69798;-72
2023/05/17 09:28:04;;;;;;;4.60;2.30;;;;;;;17.49;60.01;97047.38;110210;1243;68422;-73
2023/05/17 09:30:36;;;;;;;3.50;2.30;;;;;;;17.37;59.81;97047.23;110198;1244;58921;-73
2023/05/17 09:33:08;;;;;;;3.20;2.10;;;;;;;17.41;60.30;97049.73;110216;1242;58988;-72
2023/05/17 09:35:37;;;;;;;4.70;2.60;;;;;;;17.47;59.57;97054.13;110187;1243;70485;-73
2023/05/17 09:38:06;;;;;;;;;;;;;;;17.43;58.92;97050.52;110174;1244;69610;-72
2023/05/17 09:40:43;;;;;;;5.00;2.50;;;;;;;17.32;60.36;97052.02;110153;1244;69906;-73
2023/05/17 09:43:13;;;;;;;3.90;2.30;;;;;;;17.17;62.41;97054.15;110191;1243;58934;-71
2023/05/17 09:45:42;;;;;;;;;;;;;;;17.21;62.69;97053.02;110224;1244;58859;-72
2023/05/17 09:48:12;;;;;;;3.50;2.40;;;;;;;17.23;61.79;97059.48;110199;1245;70498;-71
2023/05/17 09:50:51;;;;;;;3.10;2.80;;;;;;;17.35;61.80;97055.77;110209;1245;69655;-72
2023/05/17 09:53:38;;;;;;;3.90;2.80;;;;;;;17.46;62.78;97056.84;110177;1241;69701;-72
2023/05/17 09:56:09;;;;;;;5.20;2.30;;;;;;;17.48;63.78;97059.98;110159;1241;58902;-71
2023/05/17 09:58:37;;;;;;;4.30;2.40;;;;;;;17.51;65.05;97057.36;110222;1244;58998;-70
2023/05/17 10:01:09;;;;;;;3.10;2.40;;;;;;;17.65;63.35;97061.05;110174;1241;71668;-71
2023/05/17 10:03:39;;;;;;;4.20;3.60;;;;;;;17.63;65.22;97062.69;110147;1241;69221;-71
2023/05/17 10:06:11;;;;;;;4.80;2.00;;;;;;;17.68;63.85;97060.88;110153;1243;69874;-73
2023/05/17 10:08:57;;;;;;;2.80;1.90;;;;;;;17.80;61.86;97062.11;110173;1243;58960;-70
2023/05/17 10:11:33;;;;;;;2.50;1.80;;;;;;;17.93;63.77;97065.65;110217;1241;58830;-72
2023/05/17 10:14:13;;;;;;;2.90;1.90;;;;;;;18.03;62.30;97071.07;110201;1243;71140;-71
2023/05/17 10:16:42;;;;;;;4.00;2.20;;;;;;;18.03;59.07;97074.11;110215;1241;69115;-71
2023/05/17 10:19:12;;;;;;;2.30;1.80;;;;;;;18.00;60.04;97075.30;110237;1243;69281;-72
2023/05/17 10:21:43;;;;;;;4.20;2.10;;;;;;;17.98;59.77;97074.73;110189;1242;58892;-72
2023/05/17 10:24:12;;;;;;;2.80;2.10;;;;;;;17.85;62.25;97071.83;110205;1244;58871;-74
2023/05/17 10:26:43;;;;;;;3.10;2.10;;;;;;;17.87;60.78;97071.56;110235;1243;71104;-73
2023/05/17 10:29:12;;;;;;;3.40;2.00;;;;;;;17.75;64.87;97070.02;110202;1241;68334;-71
2023/05/17 10:31:43;;;;;;;3.30;1.80;;;;;;;17.73;64.26;97067.91;110183;1241;69874;-72
2023/05/17 10:34:14;;;;;;;2.30;2.00;;;;;;;17.70;64.92;97073.14;110180;1245;58879;-72
2023/05/17 10:36:45;;;;;;;2.50;2.10;;;;;;;17.61;67.81;97072.91;110209;1245;58868;-72
2023/05/17 10:39:14;;;;;;;2.80;2.20;;;;;;;17.60;68.26;97072.48;110199;1241;71173;-72
2023/05/17 10:41:48;;;;;;;3.20;2.80;;;;;;;17.48;70.37;97069.71;110214;1241;68482;-72
2023/05/17 10:44:18;;;;;;;3.30;2.40;;;;;;;17.44;70.51;97073.77;110221;1241;69156;-74
2023/05/17 10:46:55;;;;;;;3.10;2.10;;;;;;;17.39;73.77;97074.95;110244;1241;58954;-72
2023/05/17 10:49:32;;;;;;;3.50;2.10;;;;;;;17.39;74.49;97076.91;110165;1244;58805;-73
2023/05/17 10:52:16;;;;;;;3.30;1.90;;;;;;;17.43;73.40;97073.58;110204;1244;71192;-72
2023/05/17 10:54:49;;;;;;;2.20;1.70;;;;;;;17.50;73.58;97072.32;110199;1245;68938;-72
2023/05/17 10:57:37;;;;;;;2.70;1.80;;;;;;;17.55;72.30;97071.90;110171;1244;69156;-72
2023/05/17 11:00:19;;;;;;;2.70;1.70;;;;;;;17.60;76.05;97073.75;110194;1241;58902;-72
2023/05/17 11:02:49;;;;;;;3.50;2.10;;;;;;;17.66;72.40;97069.38;110233;1241;59288;-72
2023/05/17 11:05:26;;;;;;;3.20;2.30;;;;;;;17.70;72.27;97069.61;110199;1244;70559;-72
2023/05/17 11:08:15;;;;;;;2.40;1.90;;;;;;;17.76;74.66;97068.36;110199;1245;69814;-71
2023/05/17 11:11:24;;;;;;;2.90;2.30;;;;;;;17.83;77.18;97068.13;110204;1243;69128;-72
2023/05/17 11:13:56;;;;;;;4.00;2.40;;;;;;;17.91;78.47;97066.41;110193;1241;58934;-72
2023/05/17 11:16:35;;;;;;;3.20;2.50;;;;;;;17.93;80.29;97065.31;110218;1245;58948;-73
2023/05/17 11:19:09;;;;;;;2.30;2.10;;;;;;;17.91;78.51;97064.83;110174;1241;71175;-72
2023/05/17 11:21:46;;;;;;;2.60;2.20;;;;;;;17.90;74.89;97062.81;110230;1241;69815;-73
2023/05/17 11:24:24;;;;;;;3.50;2.20;;;;;;;17.88;77.17;97062.52;110196;1245;70217;-73
2023/05/17 11:26:54;;;;;;;3.50;2.50;;;;;;;17.90;78.70;97062.11;110172;1241;58863;-72
2023/05/17 11:29:29;;;;;;;2.60;2.40;;;;;;;17.71;81.44;97066.15;110233;1244;58888;-72
2023/05/17 11:32:04;;;;;;;2.90;2.50;;;;;;;17.53;82.40;97061.80;110221;1241;70463;-72
2023/05/17 11:34:34;;;;;;;2.80;2.20;;;;;;;17.53;84.76;97061.90;110198;1243;69810;-73
2023/05/17 11:37:04;;;;;;;3.60;2.90;;;;;;;17.47;84.05;97061.55;110162;1244;69263;-72
2023/05/17 11:39:33;;;;;;;4.10;2.90;;;;;;;17.43;84.28;97059.99;110199;1242;58937;-73
2023/05/17 11:42:22;;;;;;;3.50;3.10;;;;;;;17.43;82.68;97055.58;110158;1243;58827;-72
2023/05/17 11:44:56;;;;;;;3.50;2.70;;;;;;;17.47;81.27;97056.11;108242;1243;2518278;-73
2023/05/17 11:47:26;;;;;;;2.80;2.20;;;;;;;17.58;83.24;97049.90;110183;1243;69269;-73
2023/05/17 11:49:59;;;;;;;4.10;3.30;;;;;;;17.71;86.13;97048.56;110182;1241;69260;-73